createdAt,value
2018-03-03T00:02:03.962Z,69.79
2018-03-03T00:04:32.240Z,70.20
2018-03-03T00:07:00.817Z,70.67
2018-03-03T00:09:30.345Z,71.03
2018-03-03T00:11:58.639Z,70.73
2018-03-03T00:14:26.959Z,70.93
2018-03-03T00:16:56.720Z,70.72
2018-03-03T00:19:25.015Z,70.91
2018-03-03T00:21:53.348Z,71.00
2018-03-03T00:24:21.644Z,70.55
2018-03-03T00:26:49.949Z,71.23
2018-03-03T00:29:18.256Z,71.43
2018-03-03T00:31:46.532Z,71.77
2018-03-03T00:34:15.663Z,70.89
2018-03-03T00:36:43.943Z,71.27
2018-03-03T00:39:13.256Z,70.75
2018-03-03T00:41:41.555Z,70.13
2018-03-03T00:44:09.831Z,70.85
2018-03-03T00:46:38.780Z,71.04
2018-03-03T00:49:07.096Z,70.64
2018-03-03T00:51:36.300Z,70.26
2018-03-03T00:54:05.211Z,70.39
2018-03-03T00:56:33.493Z,71.05
2018-03-03T00:59:01.818Z,70.90
2018-03-03T01:01:30.236Z,71.02
2018-03-03T01:03:59.425Z,70.55
2018-03-03T01:06:27.724Z,71.29
2018-03-03T01:08:56.045Z,71.40
2018-03-03T01:11:24.337Z,70.82
2018-03-03T01:13:52.664Z,70.85
2018-03-03T01:16:20.948Z,70.46
2018-03-03T01:18:49.247Z,70.32
2018-03-03T01:21:17.757Z,70.34
2018-03-03T01:23:46.050Z,70.78
2018-03-03T01:26:14.324Z,70.67
2018-03-03T01:28:42.711Z,70.47
2018-03-03T01:31:11.080Z,70.39
2018-03-03T01:33:39.459Z,71.08
2018-03-03T01:36:07.865Z,70.70
2018-03-03T01:38:36.444Z,69.83
2018-03-03T01:41:04.901Z,69.84
2018-03-03T01:43:34.045Z,70.43
2018-03-03T01:46:02.320Z,70.88
2018-03-03T01:48:31.076Z,70.38
2018-03-03T01:50:59.361Z,70.71
2018-03-03T01:53:28.405Z,70.29
2018-03-03T01:55:57.449Z,70.49
2018-03-03T01:58:26.188Z,69.77
2018-03-03T02:00:55.248Z,70.59
2018-03-03T02:03:24.010Z,70.72
2018-03-03T02:05:52.339Z,70.53
2018-03-03T02:08:21.454Z,70.59
2018-03-03T02:10:50.528Z,70.55
2018-03-03T02:13:19.411Z,70.12
2018-03-03T02:15:47.688Z,70.21
2018-03-03T02:18:16.408Z,70.43
2018-03-03T02:20:45.549Z,70.37
2018-03-03T02:23:13.848Z,70.70
2018-03-03T02:25:42.504Z,70.92
2018-03-03T02:28:10.783Z,70.40
2018-03-03T02:30:39.500Z,70.46
2018-03-03T02:33:07.850Z,70.66
2018-03-03T02:35:36.755Z,71.04
2018-03-03T02:38:05.553Z,70.38
2018-03-03T02:40:34.513Z,70.70
2018-03-03T02:43:03.357Z,71.21
2018-03-03T02:45:31.650Z,71.37
2018-03-03T02:48:00.887Z,70.68
2018-03-03T02:50:29.187Z,71.27
2018-03-03T02:52:57.516Z,71.07
2018-03-03T02:55:26.620Z,70.78
2018-03-03T02:57:54.916Z,70.82
2018-03-03T03:00:23.236Z,70.88
2018-03-03T03:02:51.613Z,70.66
2018-03-03T03:05:20.249Z,70.31
2018-03-03T03:07:49.265Z,70.36
2018-03-03T03:10:17.843Z,69.71
2018-03-03T03:12:46.752Z,70.08
2018-03-03T03:15:15.038Z,69.80
2018-03-03T03:17:43.691Z,69.41
2018-03-03T03:20:11.980Z,69.82
2018-03-03T03:22:40.374Z,70.08
2018-03-03T03:25:09.575Z,70.21
2018-03-03T03:27:37.866Z,70.36
2018-03-03T03:30:06.264Z,70.55
2018-03-03T03:32:34.568Z,70.06
2018-03-03T03:35:03.832Z,70.30
2018-03-03T03:37:33.292Z,69.33
2018-03-03T03:40:01.574Z,69.99
2018-03-03T03:42:29.855Z,70.20
2018-03-03T03:44:58.259Z,70.58
2018-03-03T03:47:26.544Z,70.68
2018-03-03T03:49:54.844Z,69.91
2018-03-03T03:52:23.276Z,69.82
2018-03-03T03:54:52.755Z,70.58
2018-03-03T03:57:21.828Z,70.86
2018-03-03T03:59:50.246Z,71.35
2018-03-03T04:02:18.544Z,70.87
2018-03-03T04:04:46.846Z,70.85
2018-03-03T04:07:15.500Z,71.22
2018-03-03T04:09:44.123Z,71.12
2018-03-03T04:12:13.145Z,70.84
2018-03-03T04:14:42.232Z,71.29
2018-03-03T04:17:11.277Z,71.22
2018-03-03T04:19:39.584Z,71.00
2018-03-03T04:22:08.676Z,70.53
2018-03-03T04:24:36.950Z,71.01
2018-03-03T04:27:05.252Z,70.65
2018-03-03T04:29:34.308Z,69.93
2018-03-03T04:32:02.582Z,70.51
2018-03-03T04:34:30.956Z,70.42
2018-03-03T04:36:59.312Z,70.30
2018-03-03T04:39:27.603Z,70.32
2018-03-03T04:41:56.469Z,70.72
2018-03-03T04:44:25.553Z,70.69
2018-03-03T04:46:53.827Z,70.87
2018-03-03T04:49:22.716Z,71.04
2018-03-03T04:51:51.026Z,70.98
2018-03-03T04:54:19.323Z,70.72
2018-03-03T04:56:47.707Z,70.20
2018-03-03T04:59:21.383Z,70.29
2018-03-03T05:01:51.370Z,70.16
2018-03-03T05:04:25.228Z,69.98
2018-03-03T05:06:59.136Z,69.85
2018-03-03T05:09:27.732Z,69.97
2018-03-03T05:11:56.135Z,70.47
2018-03-03T05:14:30.421Z,70.49
2018-03-03T05:17:00.194Z,70.45
2018-03-03T05:22:39.142Z,70.33
2018-03-03T05:25:14.744Z,70.40
2018-03-03T05:31:13.176Z,70.33
2018-03-03T05:33:46.964Z,70.05
2018-03-03T05:36:20.771Z,69.77
2018-03-03T05:42:07.208Z,70.21
2018-03-03T05:47:55.428Z,69.83
2018-03-03T05:50:29.899Z,70.09
2018-03-03T05:52:58.197Z,70.66
2018-03-03T05:59:00.346Z,70.10
2018-03-03T06:01:40.407Z,69.32
2018-03-03T06:04:14.229Z,70.15
2018-03-03T06:06:47.971Z,70.55
2018-03-03T06:09:18.827Z,70.06
2018-03-03T06:14:15.861Z,69.66
2018-03-03T06:16:44.916Z,69.77
2018-03-03T06:19:13.399Z,70.50
2018-03-03T06:21:42.519Z,69.71
2018-03-03T06:24:11.393Z,70.19
2018-03-03T06:26:40.293Z,69.87
2018-03-03T06:29:08.627Z,69.91
2018-03-03T06:31:36.924Z,69.95
2018-03-03T06:34:06.745Z,70.18
2018-03-03T06:36:35.224Z,69.68
2018-03-03T06:39:03.527Z,69.23
2018-03-03T06:41:31.825Z,70.05
2018-03-03T06:44:01.056Z,70.17
2018-03-03T06:46:30.109Z,70.09
2018-03-03T06:48:58.419Z,69.93
2018-03-03T06:51:27.830Z,70.10
2018-03-03T06:53:56.868Z,69.69
2018-03-03T06:56:25.419Z,70.03
2018-03-03T06:58:54.501Z,69.09
2018-03-03T07:01:23.584Z,69.72
2018-03-03T07:03:51.929Z,68.68
2018-03-03T07:06:20.487Z,68.84
2018-03-03T07:08:49.732Z,68.66
2018-03-03T07:11:18.520Z,69.00
2018-03-03T07:13:46.806Z,68.86
2018-03-03T07:16:15.155Z,68.70
2018-03-03T07:18:43.468Z,68.27
2018-03-03T07:21:11.779Z,67.77
2018-03-03T07:23:40.851Z,68.29
2018-03-03T07:26:09.993Z,67.85
2018-03-03T07:28:39.011Z,67.19
2018-03-03T07:31:07.331Z,66.72
2018-03-03T07:33:36.367Z,66.72
2018-03-03T07:36:06.113Z,67.19
2018-03-03T07:38:34.912Z,67.54
2018-03-03T07:41:03.187Z,66.62
2018-03-03T07:43:31.680Z,66.34
2018-03-03T07:46:01.600Z,66.26
2018-03-03T07:48:30.723Z,65.94
2018-03-03T07:50:59.780Z,65.09
2018-03-03T07:53:28.061Z,64.81
2018-03-03T07:55:56.329Z,65.27
2018-03-03T07:58:42.603Z,65.22
2018-03-03T08:01:11.309Z,64.24
2018-03-03T08:03:39.807Z,63.54
2018-03-03T08:06:10.055Z,63.36
2018-03-03T08:08:39.104Z,63.26
2018-03-03T08:11:08.076Z,63.27
2018-03-03T08:13:36.425Z,62.93
2018-03-03T08:16:05.809Z,62.73
2018-03-03T08:18:34.080Z,64.08
2018-03-03T08:21:02.390Z,63.80
2018-03-03T08:23:31.424Z,63.23
2018-03-03T08:25:59.752Z,61.64
2018-03-03T08:28:28.885Z,61.57
2018-03-03T08:30:57.179Z,61.62
2018-03-03T08:33:26.283Z,60.81
2018-03-03T08:35:55.047Z,60.95
2018-03-03T08:38:23.331Z,60.53
2018-03-03T08:40:51.648Z,60.21
2018-03-03T08:43:20.040Z,60.32
2018-03-03T08:45:49.856Z,61.15
2018-03-03T08:48:19.708Z,61.01
2018-03-03T08:50:48.099Z,60.11
2018-03-03T08:53:16.382Z,59.61
2018-03-03T08:55:46.320Z,59.97
2018-03-03T08:58:15.284Z,59.87
2018-03-03T09:00:43.656Z,60.67
2018-03-03T09:03:11.938Z,60.23
2018-03-03T09:05:40.223Z,60.38
2018-03-03T09:08:09.115Z,59.68
2018-03-03T09:10:37.695Z,60.66
2018-03-03T09:13:05.972Z,61.28
2018-03-03T09:15:34.269Z,60.96
2018-03-03T09:18:02.724Z,60.50
2018-03-03T09:20:31.023Z,60.01
2018-03-03T09:22:59.311Z,60.60
2018-03-03T09:25:28.391Z,59.07
2018-03-03T09:27:56.669Z,58.59
2018-03-03T09:30:24.948Z,58.38
2018-03-03T09:32:54.423Z,58.62
2018-03-03T09:35:22.865Z,58.35
2018-03-03T09:37:51.420Z,58.80
2018-03-03T09:40:19.917Z,59.07
2018-03-03T09:42:48.217Z,58.79
2018-03-03T09:45:16.493Z,58.01
2018-03-03T09:47:44.822Z,58.31
2018-03-03T09:50:13.100Z,58.90
2018-03-03T09:52:41.510Z,57.84
2018-03-03T09:55:09.871Z,57.30
2018-03-03T09:57:38.198Z,56.57
2018-03-03T10:00:06.487Z,58.15
2018-03-03T10:02:35.611Z,56.95
2018-03-03T10:05:03.880Z,56.84
2018-03-03T10:07:32.162Z,56.55
2018-03-03T10:10:00.559Z,57.64
2018-03-03T10:12:29.763Z,57.09
2018-03-03T10:14:59.199Z,56.60
2018-03-03T10:17:27.780Z,55.44
2018-03-03T10:19:56.068Z,55.88
2018-03-03T10:22:24.372Z,57.04
2018-03-03T10:24:52.649Z,56.93
2018-03-03T10:27:21.709Z,56.39
2018-03-03T10:29:50.503Z,57.38
2018-03-03T10:32:19.044Z,55.43
2018-03-03T10:34:47.357Z,54.21
2018-03-03T10:37:15.639Z,55.62
2018-03-03T10:39:44.922Z,54.72
2018-03-03T10:42:13.859Z,54.62
2018-03-03T10:44:42.901Z,55.23
2018-03-03T10:47:12.012Z,54.92
2018-03-03T10:49:40.423Z,55.01
2018-03-03T10:52:08.759Z,54.47
2018-03-03T10:54:37.129Z,53.69
2018-03-03T10:57:05.429Z,53.91
2018-03-03T10:59:33.740Z,53.84
2018-03-03T11:02:02.887Z,54.36
2018-03-03T11:04:31.599Z,54.25
2018-03-03T11:06:59.984Z,54.03
2018-03-03T11:09:28.345Z,53.75
2018-03-03T11:11:56.641Z,54.38
2018-03-03T11:14:24.911Z,53.01
2018-03-03T11:16:53.292Z,53.25
2018-03-03T11:19:22.276Z,55.00
2018-03-03T11:21:50.556Z,52.19
2018-03-03T11:24:18.843Z,52.06
2018-03-03T11:26:47.156Z,52.57
2018-03-03T11:29:16.828Z,52.55
2018-03-03T11:31:45.123Z,52.87
2018-03-03T11:34:13.432Z,53.12
2018-03-03T11:36:42.564Z,54.29
2018-03-03T11:39:11.148Z,51.72
2018-03-03T11:41:39.778Z,52.66
2018-03-03T11:44:08.072Z,51.72
2018-03-03T11:46:37.442Z,52.51
2018-03-03T11:49:05.822Z,53.77
2018-03-03T11:51:34.092Z,51.26
2018-03-03T11:54:02.407Z,53.12
2018-03-03T11:56:31.503Z,52.33
2018-03-03T11:59:00.613Z,51.05
2018-03-03T12:01:28.898Z,51.69
2018-03-03T12:03:58.463Z,51.88
2018-03-03T12:06:27.340Z,52.36
2018-03-03T12:08:56.029Z,52.35
2018-03-03T12:11:24.864Z,52.13
2018-03-03T12:13:53.151Z,51.92
2018-03-03T12:16:21.440Z,51.93
2018-03-03T12:18:49.720Z,52.67
2018-03-03T12:21:19.689Z,50.93
2018-03-03T12:23:48.046Z,51.46
2018-03-03T12:26:16.358Z,51.42
2018-03-03T12:28:44.945Z,50.89
2018-03-03T12:31:14.943Z,50.23
2018-03-03T12:33:43.218Z,49.69
2018-03-03T12:36:11.680Z,50.85
2018-03-03T12:38:40.256Z,51.22
2018-03-03T12:41:09.077Z,50.75
2018-03-03T12:43:37.539Z,50.49
2018-03-03T12:46:06.552Z,50.20
2018-03-03T12:48:36.372Z,51.80
2018-03-03T12:51:04.664Z,51.08
2018-03-03T12:53:33.725Z,47.75
2018-03-03T12:56:02.299Z,45.05
2018-03-03T12:58:30.668Z,41.63
2018-03-03T13:00:58.959Z,42.45
2018-03-03T13:03:27.240Z,41.40
2018-03-03T13:05:55.813Z,39.45
2018-03-03T13:08:24.076Z,37.34
2018-03-03T13:10:52.482Z,37.08
2018-03-03T13:13:21.051Z,35.35
2018-03-03T13:15:49.323Z,31.92
2018-03-03T13:18:18.991Z,33.05
2018-03-03T13:20:48.085Z,33.30
2018-03-03T13:23:17.131Z,32.91
2018-03-03T13:25:46.366Z,30.00
2018-03-03T13:28:14.668Z,28.63
2018-03-03T13:30:43.712Z,29.88
2018-03-03T13:33:12.195Z,28.00
2018-03-03T13:35:40.589Z,31.64
2018-03-03T13:38:08.825Z,30.76
2018-03-03T13:40:37.112Z,27.91
2018-03-03T13:43:05.505Z,28.74
2018-03-03T13:45:33.767Z,26.41
2018-03-03T13:48:02.168Z,26.80
2018-03-03T13:50:30.524Z,27.37
2018-03-03T13:52:58.795Z,27.81
2018-03-03T13:55:27.063Z,27.29
2018-03-03T13:57:55.891Z,28.87
2018-03-03T14:00:24.472Z,25.51
2018-03-03T14:02:52.740Z,26.54
2018-03-03T14:05:21.533Z,26.13
2018-03-03T14:07:49.825Z,26.22
2018-03-03T14:10:18.091Z,27.43
2018-03-03T14:12:46.411Z,27.12
2018-03-03T14:15:14.701Z,28.19
2018-03-03T14:17:43.895Z,29.08
2018-03-03T14:20:13.141Z,29.40
2018-03-03T14:22:42.345Z,27.04
2018-03-03T14:25:10.711Z,27.61
2018-03-03T14:27:39.003Z,28.65
2018-03-03T14:30:08.754Z,30.31
2018-03-03T14:32:37.389Z,30.52
2018-03-03T14:35:05.693Z,32.64
2018-03-03T14:37:33.980Z,35.17
2018-03-03T14:40:03.185Z,36.95
2018-03-03T14:42:31.716Z,39.14
2018-03-03T14:45:01.591Z,41.04
2018-03-03T14:47:29.943Z,42.39
2018-03-03T14:49:58.340Z,42.60
2018-03-03T14:52:26.611Z,43.63
2018-03-03T14:54:54.963Z,44.82
2018-03-03T14:57:23.237Z,45.10
2018-03-03T14:59:51.835Z,45.14
2018-03-03T15:02:20.112Z,46.39
2018-03-03T15:04:48.480Z,46.20
2018-03-03T15:07:16.869Z,46.95
2018-03-03T15:09:45.160Z,46.50
2018-03-03T15:12:13.467Z,47.66
2018-03-03T15:14:41.792Z,46.82
2018-03-03T15:17:10.148Z,46.49
2018-03-03T15:19:39.212Z,48.51
2018-03-03T15:22:07.489Z,46.87
2018-03-03T15:24:36.452Z,47.70
2018-03-03T15:27:05.719Z,47.08
2018-03-03T15:29:34.874Z,48.11
2018-03-03T15:32:03.573Z,47.17
2018-03-03T15:34:31.923Z,49.03
2018-03-03T15:37:00.233Z,47.77
2018-03-03T15:39:29.096Z,48.45
2018-03-03T15:41:58.145Z,48.70
2018-03-03T15:44:27.193Z,49.07
2018-03-03T15:46:55.478Z,48.71
2018-03-03T15:49:23.792Z,49.18
2018-03-03T15:51:52.952Z,49.19
2018-03-03T15:54:21.268Z,48.23
2018-03-03T15:56:50.333Z,48.33
2018-03-03T15:59:19.201Z,48.49
2018-03-03T16:01:47.584Z,48.97
2018-03-03T16:04:15.893Z,49.15
2018-03-03T16:06:44.172Z,48.58
2018-03-03T16:09:12.629Z,49.60
2018-03-03T16:11:40.925Z,49.16
2018-03-03T16:14:09.637Z,48.82
2018-03-03T16:16:38.766Z,49.10
2018-03-03T16:19:07.511Z,50.57
2018-03-03T16:21:35.832Z,50.35
2018-03-03T16:24:04.488Z,50.88
2018-03-03T16:26:33.607Z,50.51
2018-03-03T16:29:01.898Z,52.00
2018-03-03T16:31:31.788Z,52.60
2018-03-03T16:34:00.877Z,52.83
2018-03-03T16:36:29.920Z,52.38
2018-03-03T16:38:58.981Z,51.50
2018-03-03T16:41:27.596Z,52.42
2018-03-03T16:43:55.896Z,52.34
2018-03-03T16:46:24.839Z,53.48
2018-03-03T16:48:53.197Z,52.94
2018-03-03T16:51:21.460Z,53.94
2018-03-03T16:53:49.741Z,53.98
2018-03-03T16:56:18.049Z,53.08
2018-03-03T16:58:47.812Z,53.16
2018-03-03T17:01:16.102Z,53.21
2018-03-03T17:03:44.472Z,53.10
2018-03-03T17:06:13.331Z,53.94
2018-03-03T17:08:42.479Z,53.83
2018-03-03T17:11:10.783Z,54.50
2018-03-03T17:13:39.836Z,54.48
2018-03-03T17:16:08.639Z,55.07
2018-03-03T17:18:36.979Z,54.98
2018-03-03T17:21:05.269Z,54.96
2018-03-03T17:23:33.593Z,55.32
2018-03-03T17:26:02.778Z,55.75
2018-03-03T17:28:31.077Z,55.56
2018-03-03T17:31:00.236Z,55.27
2018-03-03T17:33:29.255Z,56.04
2018-03-03T17:35:57.547Z,56.28
2018-03-03T17:38:26.627Z,57.07
2018-03-03T17:40:54.976Z,55.81
2018-03-03T17:43:23.272Z,55.77
2018-03-03T17:45:51.604Z,56.00
2018-03-03T17:48:21.064Z,55.62
2018-03-03T17:50:49.385Z,55.45
2018-03-03T17:53:17.691Z,55.53
2018-03-03T17:55:45.976Z,56.18
2018-03-03T17:58:14.873Z,56.24
2018-03-03T18:00:43.151Z,56.65
2018-03-03T18:03:11.514Z,56.88
2018-03-03T18:05:39.917Z,57.27
2018-03-03T18:08:08.679Z,57.72
2018-03-03T18:10:36.986Z,57.41
2018-03-03T18:13:07.076Z,57.38
2018-03-03T18:15:35.357Z,58.70
2018-03-03T18:18:03.958Z,58.40
2018-03-03T18:20:32.665Z,58.72
2018-03-03T18:23:00.993Z,59.02
2018-03-03T18:25:29.321Z,58.65
2018-03-03T18:27:58.378Z,59.93
2018-03-03T18:30:28.146Z,60.25
2018-03-03T18:32:56.492Z,59.49
2018-03-03T18:35:24.766Z,60.15
2018-03-03T18:37:53.047Z,59.75
2018-03-03T18:40:21.380Z,59.83
2018-03-03T18:42:49.697Z,60.90
2018-03-03T18:45:18.103Z,60.48
2018-03-03T18:47:46.712Z,60.10
2018-03-03T18:50:15.867Z,60.81
2018-03-03T18:52:44.886Z,60.73
2018-03-03T18:55:14.686Z,61.42
2018-03-03T18:57:42.956Z,61.81
2018-03-03T19:00:11.262Z,61.36
2018-03-03T19:02:39.561Z,61.67
2018-03-03T19:05:07.852Z,62.25
2018-03-03T19:07:36.160Z,61.44
2018-03-03T19:10:04.459Z,61.97
2018-03-03T19:12:32.773Z,61.46
2018-03-03T19:15:01.124Z,62.05
2018-03-03T19:17:30.213Z,62.41
2018-03-03T19:19:58.504Z,62.55
2018-03-03T19:22:26.829Z,62.51
2018-03-03T19:24:55.108Z,61.89
2018-03-03T19:27:23.399Z,61.77
2018-03-03T19:29:51.700Z,62.06
2018-03-03T19:32:20.500Z,62.10
2018-03-03T19:34:49.546Z,62.01
2018-03-03T19:37:19.281Z,62.12
2018-03-03T19:39:47.865Z,62.41
2018-03-03T19:42:16.173Z,62.35
2018-03-03T19:44:45.120Z,62.88
2018-03-03T19:47:14.390Z,62.85
2018-03-03T19:49:42.650Z,62.64
2018-03-03T19:52:11.272Z,63.11
2018-03-03T19:54:40.002Z,63.00
2018-03-03T19:57:08.601Z,63.41
2018-03-03T19:59:36.897Z,63.50
2018-03-03T20:02:05.953Z,63.16
2018-03-03T20:04:34.250Z,63.90
2018-03-03T20:07:02.601Z,63.50
2018-03-03T20:09:30.893Z,64.27
2018-03-03T20:11:59.551Z,64.01
2018-03-03T20:14:27.932Z,63.76
2018-03-03T20:16:56.556Z,63.96
2018-03-03T20:19:24.827Z,64.26
2018-03-03T20:21:53.187Z,64.17
2018-03-03T20:24:21.492Z,64.65
2018-03-03T20:26:49.800Z,64.61
2018-03-03T20:29:19.065Z,63.80
2018-03-03T20:31:47.740Z,64.21
2018-03-03T20:34:16.025Z,64.22
2018-03-03T20:36:44.382Z,64.03
2018-03-03T20:39:12.756Z,64.17
2018-03-03T20:41:42.406Z,64.74
2018-03-03T20:44:10.760Z,64.90
2018-03-03T20:46:39.057Z,64.64
2018-03-03T20:49:07.339Z,64.57
2018-03-03T20:51:37.562Z,65.21
2018-03-03T20:54:05.861Z,65.02
2018-03-03T20:56:35.660Z,65.32
2018-03-03T20:59:04.790Z,64.78
2018-03-03T21:01:33.061Z,65.57
2018-03-03T21:04:02.571Z,65.25
2018-03-03T21:06:31.621Z,65.89
2018-03-03T21:08:59.912Z,65.10
2018-03-03T21:14:34.760Z,65.71
2018-03-03T21:17:03.076Z,65.68
2018-03-03T21:19:31.518Z,66.02
2018-03-03T21:21:59.857Z,66.27
2018-03-03T21:24:28.960Z,66.33
2018-03-03T21:26:57.248Z,66.64
2018-03-03T21:29:25.528Z,66.42
2018-03-03T21:31:54.088Z,66.75
2018-03-03T21:34:22.380Z,66.27
2018-03-03T21:36:50.671Z,66.63
2018-03-03T21:39:19.490Z,65.87
2018-03-03T21:41:47.952Z,66.83
2018-03-03T21:44:17.101Z,66.32
2018-03-03T21:46:45.421Z,66.89
2018-03-03T21:49:13.721Z,66.61
2018-03-03T21:51:42.004Z,66.48
2018-03-03T21:54:11.077Z,67.02
2018-03-03T21:56:40.017Z,66.72
2018-03-03T21:59:09.069Z,67.28
2018-03-03T22:01:37.391Z,66.69
2018-03-03T22:04:06.720Z,67.09
2018-03-03T22:06:35.001Z,66.12
2018-03-03T22:09:03.288Z,66.86
2018-03-03T22:11:31.629Z,66.60
2018-03-03T22:14:00.701Z,66.40
2018-03-03T22:16:29.040Z,66.57
2018-03-03T22:18:57.349Z,66.76
2018-03-03T22:21:25.648Z,66.45
2018-03-03T22:23:54.848Z,66.05
2018-03-03T22:26:25.001Z,66.75
2018-03-03T22:28:54.033Z,66.79
2018-03-03T22:31:22.561Z,66.79
2018-03-03T22:33:51.604Z,66.85
2018-03-03T22:36:20.212Z,67.04
2018-03-03T22:38:48.502Z,66.75
2018-03-03T22:41:16.777Z,66.50
2018-03-03T22:43:45.070Z,66.55
2018-03-03T22:46:14.112Z,66.61
2018-03-03T22:48:42.760Z,66.93
2018-03-03T22:51:12.126Z,66.72
2018-03-03T22:53:40.404Z,66.15
2018-03-03T22:56:08.709Z,66.70
2018-03-03T22:58:37.760Z,66.67
2018-03-03T23:01:06.124Z,66.62
2018-03-03T23:03:34.440Z,67.08
2018-03-03T23:06:02.781Z,67.19
2018-03-03T23:08:31.873Z,67.31
2018-03-03T23:11:01.717Z,67.22
2018-03-03T23:13:29.989Z,67.06
2018-03-03T23:15:58.344Z,67.32
2018-03-03T23:18:26.628Z,66.99
2018-03-03T23:20:55.424Z,67.14
2018-03-03T23:23:24.138Z,66.59
2018-03-03T23:25:53.052Z,66.76
2018-03-03T23:28:22.096Z,66.68
2018-03-03T23:30:50.688Z,67.08
2018-03-03T23:33:18.977Z,67.35
2018-03-03T23:35:47.284Z,66.94
2018-03-03T23:38:17.813Z,67.12
2018-03-03T23:40:46.189Z,66.91
2018-03-03T23:43:14.477Z,66.85
2018-03-03T23:45:43.564Z,66.93
2018-03-03T23:48:11.894Z,66.98
2018-03-03T23:50:40.917Z,66.89
2018-03-03T23:53:09.364Z,66.20
2018-03-03T23:55:37.688Z,66.82
2018-03-03T23:58:06.777Z,67.04
